sensor_id;sensor_type;location;lat;lon;timestamp;temperature;humidity
43414;DHT22;29013;49.676;8.606;2022-08-20T00:01:50;21.3;80.7
43414;DHT22;29013;49.676;8.606;2022-08-20T00:07:17;21.4;80.5
43414;DHT22;29013;49.676;8.606;2022-08-20T00:12:46;21.4;81.3
43414;DHT22;29013;49.676;8.606;2022-08-20T00:18:08;21.3;80.9
43414;DHT22;29013;49.676;8.606;2022-08-20T00:23:36;21.1;82.4
43414;DHT22;29013;49.676;8.606;2022-08-20T00:29:04;21.1;82.8
43414;DHT22;29013;49.676;8.606;2022-08-20T00:34:26;21.1;83.3
43414;DHT22;29013;49.676;8.606;2022-08-20T00:39:48;21.1;83.6
43414;DHT22;29013;49.676;8.606;2022-08-20T00:45:12;21.2;83.7
43414;DHT22;29013;49.676;8.606;2022-08-20T00:50:34;21.1;83.8
43414;DHT22;29013;49.676;8.606;2022-08-20T00:55:55;21.2;83.7
43414;DHT22;29013;49.676;8.606;2022-08-20T01:01:23;21.1;83.8
43414;DHT22;29013;49.676;8.606;2022-08-20T01:06:45;21.1;84.3
43414;DHT22;29013;49.676;8.606;2022-08-20T01:12:12;21.0;84.6
43414;DHT22;29013;49.676;8.606;2022-08-20T01:17:41;21.0;84.6
43414;DHT22;29013;49.676;8.606;2022-08-20T01:23:06;21.0;85.2
43414;DHT22;29013;49.676;8.606;2022-08-20T01:28:33;21.0;86.5
43414;DHT22;29013;49.676;8.606;2022-08-20T01:33:57;21.0;86.0
43414;DHT22;29013;49.676;8.606;2022-08-20T01:39:22;21.0;86.3
43414;DHT22;29013;49.676;8.606;2022-08-20T01:44:46;21.0;86.4
43414;DHT22;29013;49.676;8.606;2022-08-20T01:50:15;21.0;86.9
43414;DHT22;29013;49.676;8.606;2022-08-20T01:55:42;21.1;86.9
43414;DHT22;29013;49.676;8.606;2022-08-20T02:01:16;21.0;88.2
43414;DHT22;29013;49.676;8.606;2022-08-20T02:06:37;21.0;88.7
43414;DHT22;29013;49.676;8.606;2022-08-20T02:11:58;21.0;89.3
43414;DHT22;29013;49.676;8.606;2022-08-20T02:17:25;21.0;89.5
43414;DHT22;29013;49.676;8.606;2022-08-20T02:22:48;21.1;89.5
43414;DHT22;29013;49.676;8.606;2022-08-20T02:28:13;21.1;88.9
43414;DHT22;29013;49.676;8.606;2022-08-20T02:33:37;21.2;89.7
43414;DHT22;29013;49.676;8.606;2022-08-20T02:39:01;21.2;89.4
43414;DHT22;29013;49.676;8.606;2022-08-20T02:44:23;21.2;89.6
43414;DHT22;29013;49.676;8.606;2022-08-20T02:49:49;21.3;89.9
43414;DHT22;29013;49.676;8.606;2022-08-20T02:55:12;21.2;89.8
43414;DHT22;29013;49.676;8.606;2022-08-20T03:00:36;21.2;90.0
43414;DHT22;29013;49.676;8.606;2022-08-20T03:06:00;21.2;90.0
43414;DHT22;29013;49.676;8.606;2022-08-20T03:11:27;21.2;89.9
43414;DHT22;29013;49.676;8.606;2022-08-20T03:16:56;21.2;90.0
43414;DHT22;29013;49.676;8.606;2022-08-20T03:22:24;21.2;90.3
43414;DHT22;29013;49.676;8.606;2022-08-20T03:27:51;21.2;90.2
43414;DHT22;29013;49.676;8.606;2022-08-20T03:33:18;21.2;90.2
43414;DHT22;29013;49.676;8.606;2022-08-20T03:38:46;21.3;90.3
43414;DHT22;29013;49.676;8.606;2022-08-20T03:44:11;21.2;90.7
43414;DHT22;29013;49.676;8.606;2022-08-20T03:49:36;21.2;90.8
43414;DHT22;29013;49.676;8.606;2022-08-20T03:55:00;21.2;90.8
43414;DHT22;29013;49.676;8.606;2022-08-20T04:00:36;21.3;91.0
43414;DHT22;29013;49.676;8.606;2022-08-20T04:05:53;21.3;91.0
43414;DHT22;29013;49.676;8.606;2022-08-20T04:11:21;21.3;91.1
43414;DHT22;29013;49.676;8.606;2022-08-20T04:16:48;21.3;91.2
43414;DHT22;29013;49.676;8.606;2022-08-20T04:22:17;21.2;91.2
43414;DHT22;29013;49.676;8.606;2022-08-20T04:27:41;21.2;91.1
43414;DHT22;29013;49.676;8.606;2022-08-20T04:33:08;21.2;90.9
43414;DHT22;29013;49.676;8.606;2022-08-20T04:38:35;21.2;91.8
43414;DHT22;29013;49.676;8.606;2022-08-20T04:43:57;21.2;91.3
43414;DHT22;29013;49.676;8.606;2022-08-20T04:49:25;21.2;91.1
43414;DHT22;29013;49.676;8.606;2022-08-20T04:54:51;21.2;91.3
43414;DHT22;29013;49.676;8.606;2022-08-20T05:00:17;21.2;91.3
43414;DHT22;29013;49.676;8.606;2022-08-20T05:05:43;21.2;91.6
43414;DHT22;29013;49.676;8.606;2022-08-20T05:11:08;21.2;91.7
43414;DHT22;29013;49.676;8.606;2022-08-20T05:16:33;21.2;91.7
43414;DHT22;29013;49.676;8.606;2022-08-20T05:22:00;21.3;91.8
43414;DHT22;29013;49.676;8.606;2022-08-20T05:27:28;21.3;91.9
43414;DHT22;29013;49.676;8.606;2022-08-20T05:32:55;21.4;91.8
43414;DHT22;29013;49.676;8.606;2022-08-20T05:38:23;21.4;91.7
43414;DHT22;29013;49.676;8.606;2022-08-20T05:43:49;21.5;92.0
43414;DHT22;29013;49.676;8.606;2022-08-20T05:49:12;21.5;92.0
43414;DHT22;29013;49.676;8.606;2022-08-20T05:54:38;21.5;92.0
43414;DHT22;29013;49.676;8.606;2022-08-20T06:00:05;21.6;92.5
43414;DHT22;29013;49.676;8.606;2022-08-20T06:05:28;21.6;94.3
43414;DHT22;29013;49.676;8.606;2022-08-20T06:10:55;21.5;97.2
43414;DHT22;29013;49.676;8.606;2022-08-20T06:16:21;21.3;99.5
43414;DHT22;29013;49.676;8.606;2022-08-20T06:21:45;21.3;99.9
43414;DHT22;29013;49.676;8.606;2022-08-20T06:27:13;21.2;99.9
43414;DHT22;29013;49.676;8.606;2022-08-20T06:32:36;21.0;99.9
43414;DHT22;29013;49.676;8.606;2022-08-20T06:38:04;21.1;99.9
43414;DHT22;29013;49.676;8.606;2022-08-20T06:43:30;21.1;99.9
43414;DHT22;29013;49.676;8.606;2022-08-20T06:48:52;21.1;99.9
43414;DHT22;29013;49.676;8.606;2022-08-20T06:54:19;21.0;99.9
43414;DHT22;29013;49.676;8.606;2022-08-20T06:59:43;21.0;99.9
43414;DHT22;29013;49.676;8.606;2022-08-20T07:05:11;21.0;99.9
43414;DHT22;29013;49.676;8.606;2022-08-20T07:10:35;21.0;99.9
43414;DHT22;29013;49.676;8.606;2022-08-20T07:16:02;20.9;99.9
43414;DHT22;29013;49.676;8.606;2022-08-20T07:21:30;21.1;99.9
43414;DHT22;29013;49.676;8.606;2022-08-20T07:26:57;21.1;99.9
43414;DHT22;29013;49.676;8.606;2022-08-20T07:32:23;21.1;99.9
43414;DHT22;29013;49.676;8.606;2022-08-20T07:37:50;21.2;99.9
43414;DHT22;29013;49.676;8.606;2022-08-20T07:43:18;21.3;99.9
43414;DHT22;29013;49.676;8.606;2022-08-20T07:48:46;21.4;99.9
43414;DHT22;29013;49.676;8.606;2022-08-20T07:54:12;21.4;99.9
43414;DHT22;29013;49.676;8.606;2022-08-20T07:59:34;21.3;99.9
43414;DHT22;29013;49.676;8.606;2022-08-20T08:04:56;21.4;99.9
43414;DHT22;29013;49.676;8.606;2022-08-20T08:10:24;21.4;99.9
43414;DHT22;29013;49.676;8.606;2022-08-20T08:15:53;21.3;99.9
43414;DHT22;29013;49.676;8.606;2022-08-20T08:21:17;21.5;99.9
43414;DHT22;29013;49.676;8.606;2022-08-20T08:26:44;21.6;99.9
43414;DHT22;29013;49.676;8.606;2022-08-20T08:32:13;21.7;99.9
43414;DHT22;29013;49.676;8.606;2022-08-20T08:37:40;21.7;99.9
43414;DHT22;29013;49.676;8.606;2022-08-20T08:43:08;21.9;99.9
43414;DHT22;29013;49.676;8.606;2022-08-20T08:48:37;22.7;99.9
43414;DHT22;29013;49.676;8.606;2022-08-20T08:54:03;23.5;99.9
43414;DHT22;29013;49.676;8.606;2022-08-20T08:59:28;23.9;99.9
43414;DHT22;29013;49.676;8.606;2022-08-20T09:04:52;24.0;99.9
43414;DHT22;29013;49.676;8.606;2022-08-20T09:10:18;23.8;99.9
43414;DHT22;29013;49.676;8.606;2022-08-20T09:15:43;23.8;99.9
43414;DHT22;29013;49.676;8.606;2022-08-20T09:21:09;24.0;99.9
43414;DHT22;29013;49.676;8.606;2022-08-20T09:26:36;24.3;99.4
43414;DHT22;29013;49.676;8.606;2022-08-20T09:32:10;24.2;99.7
43414;DHT22;29013;49.676;8.606;2022-08-20T09:37:37;24.2;99.7
43414;DHT22;29013;49.676;8.606;2022-08-20T09:43:05;24.1;99.9
43414;DHT22;29013;49.676;8.606;2022-08-20T09:48:26;23.9;99.9
43414;DHT22;29013;49.676;8.606;2022-08-20T09:53:53;23.7;99.9
43414;DHT22;29013;49.676;8.606;2022-08-20T09:59:18;24.0;99.9
43414;DHT22;29013;49.676;8.606;2022-08-20T10:04:46;24.7;99.9
43414;DHT22;29013;49.676;8.606;2022-08-20T10:10:12;25.4;97.4
43414;DHT22;29013;49.676;8.606;2022-08-20T10:15:32;25.9;97.3
43414;DHT22;29013;49.676;8.606;2022-08-20T10:20:55;26.4;95.2
43414;DHT22;29013;49.676;8.606;2022-08-20T10:26:19;26.7;94.2
43414;DHT22;29013;49.676;8.606;2022-08-20T10:31:44;26.9;93.4
43414;DHT22;29013;49.676;8.606;2022-08-20T10:37:14;26.7;93.4
43414;DHT22;29013;49.676;8.606;2022-08-20T10:42:38;26.9;94.6
43414;DHT22;29013;49.676;8.606;2022-08-20T10:48:06;27.6;93.9
43414;DHT22;29013;49.676;8.606;2022-08-20T10:53:34;28.1;91.8
43414;DHT22;29013;49.676;8.606;2022-08-20T10:58:56;27.7;91.3
43414;DHT22;29013;49.676;8.606;2022-08-20T11:04:18;27.7;92.3
43414;DHT22;29013;49.676;8.606;2022-08-20T11:09:46;27.9;90.2
43414;DHT22;29013;49.676;8.606;2022-08-20T11:15:13;27.7;90.2
43414;DHT22;29013;49.676;8.606;2022-08-20T11:20:39;27.4;91.1
43414;DHT22;29013;49.676;8.606;2022-08-20T11:26:04;27.8;90.2
43414;DHT22;29013;49.676;8.606;2022-08-20T11:31:30;27.7;88.1
43414;DHT22;29013;49.676;8.606;2022-08-20T11:36:55;27.7;87.3
43414;DHT22;29013;49.676;8.606;2022-08-20T11:42:20;28.0;83.7
43414;DHT22;29013;49.676;8.606;2022-08-20T11:47:49;28.1;83.0
43414;DHT22;29013;49.676;8.606;2022-08-20T11:53:17;27.9;80.5
43414;DHT22;29013;49.676;8.606;2022-08-20T11:58:44;28.1;80.5
43414;DHT22;29013;49.676;8.606;2022-08-20T12:04:12;28.3;80.1
43414;DHT22;29013;49.676;8.606;2022-08-20T12:09:40;28.4;78.4
43414;DHT22;29013;49.676;8.606;2022-08-20T12:15:10;28.5;77.8
43414;DHT22;29013;49.676;8.606;2022-08-20T12:20:35;28.2;72.5
43414;DHT22;29013;49.676;8.606;2022-08-20T12:26:00;28.4;70.0
43414;DHT22;29013;49.676;8.606;2022-08-20T12:31:25;28.0;73.3
43414;DHT22;29013;49.676;8.606;2022-08-20T12:36:59;28.1;71.3
43414;DHT22;29013;49.676;8.606;2022-08-20T12:42:24;28.4;66.1
43414;DHT22;29013;49.676;8.606;2022-08-20T12:47:51;28.7;65.1
43414;DHT22;29013;49.676;8.606;2022-08-20T12:53:17;28.9;65.7
43414;DHT22;29013;49.676;8.606;2022-08-20T12:58:45;29.0;62.5
43414;DHT22;29013;49.676;8.606;2022-08-20T13:04:12;29.1;61.3
43414;DHT22;29013;49.676;8.606;2022-08-20T13:09:36;28.9;59.8
43414;DHT22;29013;49.676;8.606;2022-08-20T13:15:04;28.8;58.1
43414;DHT22;29013;49.676;8.606;2022-08-20T13:20:29;28.9;55.4
43414;DHT22;29013;49.676;8.606;2022-08-20T13:25:53;29.0;53.9
43414;DHT22;29013;49.676;8.606;2022-08-20T13:31:21;28.9;53.9
43414;DHT22;29013;49.676;8.606;2022-08-20T13:36:45;29.0;49.4
43414;DHT22;29013;49.676;8.606;2022-08-20T13:42:14;28.9;50.4
43414;DHT22;29013;49.676;8.606;2022-08-20T13:47:39;28.8;52.2
43414;DHT22;29013;49.676;8.606;2022-08-20T13:53:09;29.0;49.0
43414;DHT22;29013;49.676;8.606;2022-08-20T13:58:44;29.1;49.9
43414;DHT22;29013;49.676;8.606;2022-08-20T14:09:49;29.0;49.8
43414;DHT22;29013;49.676;8.606;2022-08-20T14:15:14;29.0;50.0
43414;DHT22;29013;49.676;8.606;2022-08-20T14:20:40;29.0;50.5
43414;DHT22;29013;49.676;8.606;2022-08-20T14:26:08;28.9;50.3
43414;DHT22;29013;49.676;8.606;2022-08-20T14:31:34;28.9;49.9
43414;DHT22;29013;49.676;8.606;2022-08-20T14:37:13;28.9;49.2
43414;DHT22;29013;49.676;8.606;2022-08-20T14:42:34;29.1;50.2
43414;DHT22;29013;49.676;8.606;2022-08-20T14:48:00;29.0;47.3
43414;DHT22;29013;49.676;8.606;2022-08-20T14:53:27;29.1;46.6
43414;DHT22;29013;49.676;8.606;2022-08-20T14:58:55;29.0;46.5
43414;DHT22;29013;49.676;8.606;2022-08-20T15:04:17;29.0;47.0
43414;DHT22;29013;49.676;8.606;2022-08-20T15:09:43;28.8;48.2
43414;DHT22;29013;49.676;8.606;2022-08-20T15:15:13;28.7;49.1
43414;DHT22;29013;49.676;8.606;2022-08-20T15:20:35;28.8;49.5
43414;DHT22;29013;49.676;8.606;2022-08-20T15:25:59;28.7;47.7
43414;DHT22;29013;49.676;8.606;2022-08-20T15:31:28;28.6;48.4
43414;DHT22;29013;49.676;8.606;2022-08-20T15:36:56;28.5;47.7
43414;DHT22;29013;49.676;8.606;2022-08-20T15:42:21;28.5;47.1
43414;DHT22;29013;49.676;8.606;2022-08-20T15:47:52;28.5;45.3
43414;DHT22;29013;49.676;8.606;2022-08-20T15:53:21;28.4;45.4
43414;DHT22;29013;49.676;8.606;2022-08-20T15:58:44;28.4;44.8
43414;DHT22;29013;49.676;8.606;2022-08-20T16:04:30;28.2;44.8
43414;DHT22;29013;49.676;8.606;2022-08-20T16:09:59;28.2;41.9
43414;DHT22;29013;49.676;8.606;2022-08-20T16:15:24;28.1;42.7
43414;DHT22;29013;49.676;8.606;2022-08-20T16:20:51;28.0;42.0
43414;DHT22;29013;49.676;8.606;2022-08-20T16:26:44;27.9;42.6
43414;DHT22;29013;49.676;8.606;2022-08-20T16:32:09;27.9;42.5
43414;DHT22;29013;49.676;8.606;2022-08-20T16:37:37;27.8;43.2
43414;DHT22;29013;49.676;8.606;2022-08-20T16:43:05;27.6;41.6
43414;DHT22;29013;49.676;8.606;2022-08-20T16:48:27;27.5;43.3
43414;DHT22;29013;49.676;8.606;2022-08-20T16:53:47;27.5;43.3
43414;DHT22;29013;49.676;8.606;2022-08-20T16:59:15;27.4;42.4
43414;DHT22;29013;49.676;8.606;2022-08-20T17:04:50;27.4;43.0
43414;DHT22;29013;49.676;8.606;2022-08-20T17:10:18;27.3;43.9
43414;DHT22;29013;49.676;8.606;2022-08-20T17:15:51;27.2;44.4
43414;DHT22;29013;49.676;8.606;2022-08-20T17:21:17;27.1;47.2
43414;DHT22;29013;49.676;8.606;2022-08-20T17:26:47;27.0;49.5
43414;DHT22;29013;49.676;8.606;2022-08-20T17:32:20;26.9;49.6
43414;DHT22;29013;49.676;8.606;2022-08-20T17:37:49;26.8;50.3
43414;DHT22;29013;49.676;8.606;2022-08-20T17:43:22;26.6;50.4
43414;DHT22;29013;49.676;8.606;2022-08-20T17:48:40;26.5;51.6
43414;DHT22;29013;49.676;8.606;2022-08-20T17:54:09;26.3;53.3
43414;DHT22;29013;49.676;8.606;2022-08-20T17:59:30;26.1;55.9
43414;DHT22;29013;49.676;8.606;2022-08-20T18:04:57;25.8;56.7
43414;DHT22;29013;49.676;8.606;2022-08-20T18:10:40;25.5;58.0
43414;DHT22;29013;49.676;8.606;2022-08-20T18:16:06;25.3;60.3
43414;DHT22;29013;49.676;8.606;2022-08-20T18:21:59;25.0;61.5
43414;DHT22;29013;49.676;8.606;2022-08-20T18:27:25;24.8;62.6
43414;DHT22;29013;49.676;8.606;2022-08-20T18:33:00;24.5;65.3
43414;DHT22;29013;49.676;8.606;2022-08-20T18:38:29;24.2;67.2
43414;DHT22;29013;49.676;8.606;2022-08-20T18:43:38;24.0;67.2
43414;DHT22;29013;49.676;8.606;2022-08-20T18:49:00;23.9;65.1
43414;DHT22;29013;49.676;8.606;2022-08-20T18:54:27;23.8;67.4
43414;DHT22;29013;49.676;8.606;2022-08-20T18:59:55;23.6;65.2
43414;DHT22;29013;49.676;8.606;2022-08-20T19:05:22;23.5;69.1
43414;DHT22;29013;49.676;8.606;2022-08-20T19:10:47;23.3;70.2
43414;DHT22;29013;49.676;8.606;2022-08-20T19:16:14;23.2;71.2
43414;DHT22;29013;49.676;8.606;2022-08-20T19:21:37;23.2;70.8
43414;DHT22;29013;49.676;8.606;2022-08-20T19:27:00;23.1;70.7
43414;DHT22;29013;49.676;8.606;2022-08-20T19:32:23;23.1;71.2
43414;DHT22;29013;49.676;8.606;2022-08-20T19:37:53;22.9;71.4
43414;DHT22;29013;49.676;8.606;2022-08-20T19:43:16;22.8;71.3
43414;DHT22;29013;49.676;8.606;2022-08-20T19:48:58;22.8;70.8
43414;DHT22;29013;49.676;8.606;2022-08-20T19:54:41;22.7;71.2
43414;DHT22;29013;49.676;8.606;2022-08-20T20:00:19;22.7;72.1
43414;DHT22;29013;49.676;8.606;2022-08-20T20:05:56;22.7;71.3
43414;DHT22;29013;49.676;8.606;2022-08-20T20:11:34;22.7;67.3
43414;DHT22;29013;49.676;8.606;2022-08-20T20:17:04;22.6;68.2
43414;DHT22;29013;49.676;8.606;2022-08-20T20:22:47;22.6;69.5
43414;DHT22;29013;49.676;8.606;2022-08-20T20:28:17;22.6;68.7
43414;DHT22;29013;49.676;8.606;2022-08-20T20:33:40;22.5;71.9
43414;DHT22;29013;49.676;8.606;2022-08-20T20:39:04;22.3;71.5
43414;DHT22;29013;49.676;8.606;2022-08-20T20:44:31;22.2;71.6
43414;DHT22;29013;49.676;8.606;2022-08-20T20:49:53;22.0;72.3
43414;DHT22;29013;49.676;8.606;2022-08-20T20:55:22;21.9;72.7
43414;DHT22;29013;49.676;8.606;2022-08-20T21:00:46;21.8;72.7
43414;DHT22;29013;49.676;8.606;2022-08-20T21:06:11;21.8;73.5
43414;DHT22;29013;49.676;8.606;2022-08-20T21:11:38;21.7;74.9
43414;DHT22;29013;49.676;8.606;2022-08-20T21:17:07;21.7;74.8
43414;DHT22;29013;49.676;8.606;2022-08-20T21:22:28;21.5;75.5
43414;DHT22;29013;49.676;8.606;2022-08-20T21:27:53;21.4;75.7
43414;DHT22;29013;49.676;8.606;2022-08-20T21:33:19;21.3;76.3
43414;DHT22;29013;49.676;8.606;2022-08-20T21:38:41;21.2;76.3
43414;DHT22;29013;49.676;8.606;2022-08-20T21:44:10;21.2;76.5
43414;DHT22;29013;49.676;8.606;2022-08-20T21:49:38;21.1;77.4
43414;DHT22;29013;49.676;8.606;2022-08-20T21:55:06;20.9;77.4
43414;DHT22;29013;49.676;8.606;2022-08-20T22:00:51;20.9;78.8
43414;DHT22;29013;49.676;8.606;2022-08-20T22:06:15;20.7;78.8
43414;DHT22;29013;49.676;8.606;2022-08-20T22:11:47;20.5;79.4
43414;DHT22;29013;49.676;8.606;2022-08-20T22:17:15;20.4;80.4
43414;DHT22;29013;49.676;8.606;2022-08-20T22:22:38;20.3;81.1
43414;DHT22;29013;49.676;8.606;2022-08-20T22:28:06;20.2;82.3
43414;DHT22;29013;49.676;8.606;2022-08-20T22:33:32;20.0;82.3
43414;DHT22;29013;49.676;8.606;2022-08-20T22:39:00;20.0;82.7
43414;DHT22;29013;49.676;8.606;2022-08-20T22:44:26;20.0;82.5
43414;DHT22;29013;49.676;8.606;2022-08-20T22:49:54;19.9;83.6
43414;DHT22;29013;49.676;8.606;2022-08-20T22:55:20;19.9;83.7
43414;DHT22;29013;49.676;8.606;2022-08-20T23:00:48;19.8;84.3
43414;DHT22;29013;49.676;8.606;2022-08-20T23:06:16;19.7;84.6
43414;DHT22;29013;49.676;8.606;2022-08-20T23:11:41;19.6;86.0
43414;DHT22;29013;49.676;8.606;2022-08-20T23:17:07;19.7;84.8
43414;DHT22;29013;49.676;8.606;2022-08-20T23:22:33;19.6;84.5
43414;DHT22;29013;49.676;8.606;2022-08-20T23:28:02;19.6;85.3
43414;DHT22;29013;49.676;8.606;2022-08-20T23:33:29;19.6;85.7
43414;DHT22;29013;49.676;8.606;2022-08-20T23:39:03;19.5;85.5
43414;DHT22;29013;49.676;8.606;2022-08-20T23:44:30;19.6;85.9
43414;DHT22;29013;49.676;8.606;2022-08-20T23:49:56;19.6;86.2
43414;DHT22;29013;49.676;8.606;2022-08-20T23:55:25;19.5;86.1
